createdAt,value
2018-05-07T00:00:35.233Z,12.38
2018-05-07T00:03:04.207Z,12.43
2018-05-07T00:05:33.202Z,12.45
2018-05-07T00:08:03.435Z,12.46
2018-05-07T00:10:31.697Z,12.48
2018-05-07T00:13:00.009Z,12.50
2018-05-07T00:15:28.327Z,12.46
2018-05-07T00:17:57.567Z,12.32
2018-05-07T00:20:25.855Z,12.35
2018-05-07T00:22:55.728Z,12.19
2018-05-07T00:25:24.765Z,11.93
2018-05-07T00:27:53.829Z,11.86
2018-05-07T00:30:23.666Z,11.82
2018-05-07T00:32:52.734Z,11.80
2018-05-07T00:35:21.539Z,11.77
2018-05-07T00:37:50.231Z,11.73
2018-05-07T00:40:20.032Z,11.70
2018-05-07T00:42:49.814Z,11.67
2018-05-07T00:45:18.130Z,11.60
2018-05-07T00:47:46.660Z,11.63
2018-05-07T00:50:16.214Z,11.61
2018-05-07T00:52:44.818Z,11.59
2018-05-07T00:55:21.927Z,11.60
2018-05-07T00:57:50.270Z,11.36
2018-05-07T01:00:18.559Z,11.42
2018-05-07T01:02:47.746Z,11.30
2018-05-07T01:05:18.169Z,11.30
2018-05-07T01:07:47.472Z,11.29
2018-05-07T01:10:16.872Z,11.22
2018-05-07T01:12:45.921Z,11.26
2018-05-07T01:15:14.897Z,11.24
2018-05-07T01:17:45.258Z,11.15
2018-05-07T01:20:14.928Z,11.09
2018-05-07T01:22:43.301Z,11.14
2018-05-07T01:25:12.608Z,10.93
2018-05-07T01:27:40.887Z,10.82
2018-05-07T01:30:09.475Z,10.60
2018-05-07T01:32:38.882Z,10.27
2018-05-07T01:35:08.892Z,10.11
2018-05-07T01:37:38.834Z,10.29
2018-05-07T01:40:09.035Z,10.18
2018-05-07T01:42:38.486Z,10.06
2018-05-07T01:45:08.179Z,10.02
2018-05-07T01:47:36.462Z,9.93
2018-05-07T01:50:04.897Z,9.97
2018-05-07T01:52:33.302Z,10.02
2018-05-07T01:55:02.509Z,10.08
2018-05-07T01:57:31.595Z,10.22
2018-05-07T01:59:59.898Z,10.14
2018-05-07T02:02:29.142Z,10.11
2018-05-07T02:04:57.457Z,10.16
2018-05-07T02:07:25.914Z,10.25
2018-05-07T02:09:55.474Z,10.28
2018-05-07T02:12:26.383Z,10.39
2018-05-07T02:14:54.671Z,10.44
2018-05-07T02:17:23.546Z,10.42
2018-05-07T02:19:51.930Z,10.18
2018-05-07T02:22:20.965Z,9.96
2018-05-07T02:24:50.409Z,10.01
2018-05-07T02:27:19.210Z,10.10
2018-05-07T02:29:49.258Z,10.20
2018-05-07T02:32:17.731Z,10.21
2018-05-07T02:34:46.006Z,10.25
2018-05-07T02:37:15.103Z,10.24
2018-05-07T02:39:43.599Z,10.14
2018-05-07T02:42:12.015Z,10.06
2018-05-07T02:44:40.702Z,10.09
2018-05-07T02:47:09.010Z,10.16
2018-05-07T02:49:37.967Z,10.25
2018-05-07T02:52:06.250Z,10.28
2018-05-07T02:54:35.262Z,10.30
2018-05-07T02:57:04.134Z,10.34
2018-05-07T02:59:32.969Z,10.36
2018-05-07T03:02:02.763Z,10.31
2018-05-07T03:04:31.310Z,10.30
2018-05-07T03:07:00.459Z,10.21
2018-05-07T03:09:29.020Z,10.15
2018-05-07T03:11:57.562Z,10.04
2018-05-07T03:14:26.739Z,10.06
2018-05-07T03:16:56.874Z,9.98
2018-05-07T03:19:25.669Z,9.99
2018-05-07T03:21:57.170Z,10.01
2018-05-07T03:24:28.154Z,9.96
2018-05-07T03:26:56.603Z,9.95
2018-05-07T03:29:25.351Z,9.86
2018-05-07T03:31:55.239Z,9.83
2018-05-07T03:34:25.662Z,9.75
2018-05-07T03:36:53.890Z,9.59
2018-05-07T03:39:23.304Z,9.54
2018-05-07T03:41:52.317Z,9.57
2018-05-07T03:44:20.679Z,9.61
2018-05-07T03:46:49.682Z,9.65
2018-05-07T03:49:18.579Z,9.69
2018-05-07T03:51:46.926Z,9.58
2018-05-07T03:54:16.059Z,9.39
2018-05-07T03:56:45.290Z,9.53
2018-05-07T03:59:15.047Z,9.49
2018-05-07T04:01:44.155Z,9.57
2018-05-07T04:04:12.419Z,9.59
2018-05-07T04:06:41.395Z,9.61
2018-05-07T04:09:11.278Z,9.62
2018-05-07T04:11:39.962Z,9.63
2018-05-07T04:14:08.242Z,9.66
2018-05-07T04:16:54.299Z,9.63
2018-05-07T04:19:40.525Z,9.59
2018-05-07T04:22:26.779Z,9.64
2018-05-07T04:24:55.388Z,9.71
2018-05-07T04:27:24.378Z,9.78
2018-05-07T04:29:54.061Z,9.88
2018-05-07T04:32:24.588Z,10.00
2018-05-07T04:34:54.427Z,10.12
2018-05-07T04:37:24.252Z,10.23
2018-05-07T04:39:52.512Z,10.34
2018-05-07T04:42:20.791Z,10.46
2018-05-07T04:44:49.094Z,10.59
2018-05-07T04:47:17.462Z,10.68
2018-05-07T04:49:46.018Z,10.82
2018-05-07T04:52:14.994Z,10.93
2018-05-07T04:54:44.814Z,11.03
2018-05-07T04:57:15.358Z,11.11
2018-05-07T04:59:44.278Z,11.19
2018-05-07T05:02:12.550Z,11.27
2018-05-07T05:04:40.822Z,11.33
2018-05-07T05:07:09.337Z,11.40
2018-05-07T05:09:37.614Z,11.45
2018-05-07T05:12:06.442Z,11.53
2018-05-07T05:14:36.915Z,11.60
2018-05-07T05:17:05.189Z,11.67
2018-05-07T05:19:34.200Z,11.79
2018-05-07T05:22:02.579Z,11.89
2018-05-07T05:24:31.694Z,12.04
2018-05-07T05:27:00.746Z,12.10
2018-05-07T05:29:29.662Z,12.19
2018-05-07T05:32:00.296Z,12.27
2018-05-07T05:34:28.585Z,12.34
2018-05-07T05:36:56.929Z,12.50
2018-05-07T05:39:25.530Z,12.55
2018-05-07T05:41:53.791Z,12.62
2018-05-07T05:44:22.386Z,12.70
2018-05-07T05:46:50.778Z,12.81
2018-05-07T05:49:19.070Z,12.88
2018-05-07T05:51:47.334Z,12.95
2018-05-07T05:54:16.415Z,13.05
2018-05-07T05:56:44.889Z,13.14
2018-05-07T05:59:13.851Z,13.22
2018-05-07T06:01:43.373Z,13.23
2018-05-07T06:04:11.679Z,13.33
2018-05-07T06:06:40.080Z,13.42
2018-05-07T06:09:08.786Z,13.49
2018-05-07T06:11:39.158Z,13.56
2018-05-07T06:14:08.338Z,13.71
2018-05-07T06:16:37.974Z,13.85
2018-05-07T06:19:06.258Z,13.92
2018-05-07T06:21:34.527Z,13.96
2018-05-07T06:24:02.809Z,14.13
2018-05-07T06:26:31.183Z,14.34
2018-05-07T06:29:00.282Z,14.45
2018-05-07T06:31:29.166Z,14.52
2018-05-07T06:34:00.099Z,14.69
2018-05-07T06:36:28.507Z,14.72
2018-05-07T06:38:56.786Z,14.76
2018-05-07T06:41:26.298Z,14.95
2018-05-07T06:43:54.603Z,15.06
2018-05-07T06:46:24.084Z,15.15
2018-05-07T06:48:53.105Z,15.23
2018-05-07T06:51:21.774Z,15.35
2018-05-07T06:53:50.061Z,15.36
2018-05-07T06:56:18.442Z,15.39
2018-05-07T06:58:47.181Z,15.41
2018-05-07T07:01:16.093Z,15.51
2018-05-07T07:03:44.458Z,15.61
2018-05-07T07:06:12.870Z,15.62
2018-05-07T07:08:41.899Z,15.73
2018-05-07T07:11:10.659Z,15.80
2018-05-07T07:13:38.960Z,15.80
2018-05-07T07:16:08.183Z,15.88
2018-05-07T07:18:37.235Z,15.94
2018-05-07T07:21:07.820Z,16.01
2018-05-07T07:23:37.450Z,16.14
2018-05-07T07:26:05.734Z,16.22
2018-05-07T07:28:35.412Z,16.27
2018-05-07T07:31:05.390Z,16.31
2018-05-07T07:33:35.274Z,16.42
2018-05-07T07:36:03.550Z,16.48
2018-05-07T07:38:31.918Z,16.54
2018-05-07T07:41:01.333Z,16.66
2018-05-07T07:43:30.026Z,16.75
2018-05-07T07:45:58.902Z,16.94
2018-05-07T07:48:27.616Z,17.22
2018-05-07T07:50:57.309Z,17.21
2018-05-07T07:53:26.168Z,17.24
2018-05-07T07:55:56.076Z,17.44
2018-05-07T07:58:25.335Z,17.46
2018-05-07T08:00:54.411Z,17.75
2018-05-07T08:03:22.922Z,17.77
2018-05-07T08:05:52.127Z,17.81
2018-05-07T08:08:20.995Z,17.97
2018-05-07T08:10:49.479Z,17.98
2018-05-07T08:13:17.950Z,18.09
2018-05-07T08:15:46.232Z,18.11
2018-05-07T08:18:15.127Z,18.13
2018-05-07T08:20:43.407Z,18.20
2018-05-07T08:23:13.612Z,18.43
2018-05-07T08:25:42.119Z,18.44
2018-05-07T08:28:10.910Z,18.49
2018-05-07T08:30:39.190Z,18.62
2018-05-07T08:33:09.056Z,18.77
2018-05-07T08:35:39.305Z,19.03
2018-05-07T08:38:09.142Z,19.07
2018-05-07T08:40:37.419Z,19.06
2018-05-07T08:43:06.270Z,19.27
2018-05-07T08:45:34.599Z,19.34
2018-05-07T08:48:03.643Z,19.41
2018-05-07T08:50:32.890Z,19.38
2018-05-07T08:53:01.333Z,19.49
2018-05-07T08:55:30.271Z,19.48
2018-05-07T08:57:59.079Z,19.59
2018-05-07T09:00:28.229Z,19.72
2018-05-07T09:02:57.231Z,19.87
2018-05-07T09:05:25.803Z,19.92
2018-05-07T09:07:54.091Z,20.01
2018-05-07T09:10:24.609Z,19.94
2018-05-07T09:12:53.983Z,20.08
2018-05-07T09:15:23.013Z,20.10
2018-05-07T09:17:51.582Z,20.04
2018-05-07T09:20:19.886Z,19.92
2018-05-07T09:22:48.972Z,20.01
2018-05-07T09:25:18.386Z,20.04
2018-05-07T09:27:46.678Z,20.24
2018-05-07T09:30:16.299Z,20.36
2018-05-07T09:32:44.703Z,20.43
2018-05-07T09:35:13.983Z,20.51
2018-05-07T09:37:43.041Z,20.63
2018-05-07T09:40:11.423Z,20.70
2018-05-07T09:42:39.692Z,20.51
2018-05-07T09:45:08.122Z,20.59
2018-05-07T09:47:37.978Z,20.69
2018-05-07T09:50:06.842Z,20.68
2018-05-07T09:52:35.733Z,20.59
2018-05-07T09:55:04.938Z,20.47
2018-05-07T09:57:34.829Z,20.67
2018-05-07T10:00:03.912Z,20.86
2018-05-07T10:02:32.243Z,20.95
2018-05-07T10:05:01.272Z,21.02
2018-05-07T10:07:29.567Z,20.95
2018-05-07T10:09:58.840Z,20.92
2018-05-07T10:12:27.112Z,20.88
2018-05-07T10:14:55.399Z,21.04
2018-05-07T10:17:23.715Z,21.23
2018-05-07T10:19:56.351Z,21.24
2018-05-07T10:22:25.207Z,21.13
2018-05-07T10:24:55.831Z,21.15
2018-05-07T10:27:24.975Z,21.12
2018-05-07T10:29:53.383Z,21.25
2018-05-07T10:32:22.679Z,21.25
2018-05-07T10:34:51.231Z,21.32
2018-05-07T10:37:19.633Z,21.34
2018-05-07T10:39:48.634Z,21.56
2018-05-07T10:42:17.271Z,21.59
2018-05-07T10:44:47.144Z,21.55
2018-05-07T10:47:15.464Z,21.60
2018-05-07T10:49:44.488Z,21.54
2018-05-07T10:52:13.202Z,21.56
2018-05-07T10:54:41.502Z,21.69
2018-05-07T10:57:09.780Z,21.70
2018-05-07T10:59:38.814Z,21.81
2018-05-07T11:02:07.870Z,21.74
2018-05-07T11:04:37.622Z,21.99
2018-05-07T11:07:05.907Z,22.09
2018-05-07T11:09:34.210Z,22.19
2018-05-07T11:12:03.131Z,22.25
2018-05-07T11:14:32.827Z,22.37
2018-05-07T11:17:01.907Z,22.39
2018-05-07T11:19:30.191Z,22.55
2018-05-07T11:21:58.583Z,22.64
2018-05-07T11:24:27.987Z,22.59
2018-05-07T11:26:56.341Z,22.79
2018-05-07T11:29:24.618Z,22.70
2018-05-07T11:31:55.094Z,22.74
2018-05-07T11:34:24.461Z,22.73
2018-05-07T11:36:52.843Z,22.77
2018-05-07T11:39:21.121Z,22.86
2018-05-07T11:41:49.490Z,22.90
2018-05-07T11:44:18.082Z,23.02
2018-05-07T11:46:46.350Z,23.25
2018-05-07T11:49:15.034Z,23.37
2018-05-07T11:51:43.981Z,23.47
2018-05-07T11:54:12.740Z,23.41
2018-05-07T11:56:41.051Z,23.47
2018-05-07T11:59:10.120Z,23.68
2018-05-07T12:01:38.883Z,23.75
2018-05-07T12:04:07.167Z,23.97
2018-05-07T12:06:35.446Z,24.14
2018-05-07T12:09:03.945Z,24.28
2018-05-07T12:11:33.044Z,24.33
2018-05-07T12:14:01.931Z,24.51
2018-05-07T12:16:30.297Z,24.80
2018-05-07T12:18:58.683Z,25.12
2018-05-07T12:21:26.950Z,25.73
2018-05-07T12:23:56.930Z,26.07
2018-05-07T12:26:26.023Z,27.82
2018-05-07T12:28:55.087Z,29.43
2018-05-07T12:31:23.695Z,31.52
2018-05-07T12:33:52.824Z,33.08
2018-05-07T12:36:21.659Z,33.46
2018-05-07T12:38:51.295Z,33.53
2018-05-07T12:41:21.071Z,33.56
2018-05-07T12:43:49.903Z,33.00
2018-05-07T12:46:18.960Z,34.73
2018-05-07T12:48:47.243Z,33.92
2018-05-07T12:51:16.834Z,34.33
2018-05-07T12:53:45.198Z,36.02
2018-05-07T12:56:13.478Z,35.19
2018-05-07T12:58:41.901Z,36.30
2018-05-07T13:01:11.143Z,36.81
2018-05-07T13:03:40.207Z,36.48
2018-05-07T13:06:08.815Z,35.99
2018-05-07T13:08:37.895Z,35.65
2018-05-07T13:11:06.937Z,34.27
2018-05-07T13:13:36.767Z,36.19
2018-05-07T13:16:05.781Z,36.48
2018-05-07T13:18:35.059Z,36.68
2018-05-07T13:21:03.573Z,34.38
2018-05-07T13:23:33.246Z,37.06
2018-05-07T13:26:01.534Z,35.74
2018-05-07T13:28:30.683Z,34.37
2018-05-07T13:30:59.804Z,34.04
2018-05-07T13:33:28.070Z,34.97
2018-05-07T13:35:57.724Z,36.18
2018-05-07T13:38:26.864Z,35.37
2018-05-07T13:40:55.993Z,34.15
2018-05-07T13:43:25.411Z,34.41
2018-05-07T13:45:54.433Z,35.23
2018-05-07T13:48:23.365Z,33.69
2018-05-07T13:50:52.898Z,35.06
2018-05-07T13:53:22.791Z,37.73
2018-05-07T13:55:51.189Z,38.61
2018-05-07T13:58:20.663Z,36.73
2018-05-07T14:00:49.841Z,36.69
2018-05-07T14:03:19.183Z,38.28
2018-05-07T14:05:47.469Z,37.42
2018-05-07T14:08:17.391Z,36.70
2018-05-07T14:10:46.035Z,35.72
2018-05-07T14:13:15.715Z,34.49
2018-05-07T14:15:44.083Z,37.98
2018-05-07T14:18:13.156Z,37.74
2018-05-07T14:20:41.483Z,38.74
2018-05-07T14:23:11.298Z,38.98
2018-05-07T14:25:39.574Z,39.32
2018-05-07T14:28:08.484Z,36.87
2018-05-07T14:30:38.646Z,37.80
2018-05-07T14:33:08.300Z,37.48
2018-05-07T14:35:38.572Z,34.69
2018-05-07T14:38:06.871Z,35.94
2018-05-07T14:40:35.863Z,35.67
2018-05-07T14:43:04.450Z,36.74
2018-05-07T14:45:32.738Z,35.45
2018-05-07T14:48:01.336Z,35.94
2018-05-07T14:50:30.043Z,35.38
2018-05-07T14:53:00.162Z,37.18
2018-05-07T14:55:29.634Z,38.23
2018-05-07T14:57:58.101Z,36.07
2018-05-07T15:00:26.416Z,34.87
2018-05-07T15:02:55.631Z,33.79
2018-05-07T15:05:25.443Z,34.43
2018-05-07T15:07:53.769Z,34.37
2018-05-07T15:10:22.051Z,32.68
2018-05-07T15:12:50.692Z,33.96
2018-05-07T15:15:20.090Z,33.72
2018-05-07T15:17:49.134Z,35.08
2018-05-07T15:20:20.882Z,36.27
2018-05-07T15:22:49.995Z,35.62
2018-05-07T15:25:18.318Z,34.48
2018-05-07T15:27:46.769Z,35.17
2018-05-07T15:30:15.026Z,34.64
2018-05-07T15:32:44.346Z,34.30
2018-05-07T15:35:12.650Z,34.43
2018-05-07T15:37:41.094Z,34.29
2018-05-07T15:40:09.392Z,34.21
2018-05-07T15:42:38.463Z,33.26
2018-05-07T15:45:07.272Z,34.82
2018-05-07T15:47:35.878Z,35.88
2018-05-07T15:50:04.841Z,35.95
2018-05-07T15:52:33.970Z,34.77
2018-05-07T15:55:02.829Z,32.58
2018-05-07T15:57:31.122Z,33.39
2018-05-07T15:59:59.968Z,33.49
2018-05-07T16:02:28.278Z,34.73
2018-05-07T16:04:56.651Z,34.02
2018-05-07T16:07:25.742Z,33.46
2018-05-07T16:09:54.155Z,32.99
2018-05-07T16:12:22.767Z,34.04
2018-05-07T16:14:52.209Z,33.88
2018-05-07T16:17:21.214Z,32.31
2018-05-07T16:19:49.615Z,32.76
2018-05-07T16:22:18.326Z,32.87
2018-05-07T16:24:48.063Z,32.36
2018-05-07T16:27:17.113Z,31.76
2018-05-07T16:29:45.475Z,31.95
2018-05-07T16:32:13.759Z,31.90
2018-05-07T16:34:42.063Z,31.79
2018-05-07T16:37:10.815Z,32.32
2018-05-07T16:39:39.071Z,31.30
2018-05-07T16:42:07.879Z,29.30
2018-05-07T16:44:36.350Z,29.26
2018-05-07T16:47:04.745Z,28.25
2018-05-07T16:49:33.040Z,29.40
2018-05-07T16:52:02.205Z,30.01
2018-05-07T16:54:30.825Z,29.62
2018-05-07T16:56:59.806Z,29.26
2018-05-07T16:59:29.460Z,27.63
2018-05-07T17:01:59.731Z,28.83
2018-05-07T17:04:28.475Z,29.53
2018-05-07T17:06:58.060Z,29.10
2018-05-07T17:09:26.820Z,28.79
2018-05-07T17:11:55.193Z,28.37
2018-05-07T17:14:24.142Z,28.05
2018-05-07T17:16:53.999Z,27.14
2018-05-07T17:19:23.803Z,26.37
2018-05-07T17:21:52.119Z,26.31
2018-05-07T17:24:20.471Z,25.99
2018-05-07T17:26:49.885Z,25.21
2018-05-07T17:29:18.166Z,24.75
2018-05-07T17:31:46.567Z,24.11
2018-05-07T17:34:14.893Z,24.26
2018-05-07T17:36:44.556Z,24.35
2018-05-07T17:39:12.939Z,23.96
2018-05-07T17:41:41.974Z,24.20
2018-05-07T17:44:28.970Z,23.83
2018-05-07T17:47:15.776Z,23.69
2018-05-07T17:49:44.581Z,23.30
2018-05-07T17:52:14.370Z,23.60
2018-05-07T17:54:42.746Z,23.13
2018-05-07T17:57:11.029Z,22.96
2018-05-07T17:59:39.431Z,22.53
2018-05-07T18:02:08.519Z,21.94
2018-05-07T18:04:39.219Z,22.18
2018-05-07T18:07:08.314Z,22.13
2018-05-07T18:09:36.618Z,21.73
2018-05-07T18:12:04.917Z,21.60
2018-05-07T18:14:35.044Z,21.43
2018-05-07T18:17:04.950Z,21.25
2018-05-07T18:19:34.002Z,20.80
2018-05-07T18:22:02.294Z,20.48
2018-05-07T18:24:31.442Z,20.46
2018-05-07T18:27:00.507Z,20.32
2018-05-07T18:29:29.128Z,20.40
2018-05-07T18:31:57.779Z,20.13
2018-05-07T18:34:26.063Z,20.26
2018-05-07T18:36:55.476Z,20.02
2018-05-07T18:39:24.554Z,19.90
2018-05-07T18:41:52.935Z,19.91
2018-05-07T18:44:21.236Z,19.92
2018-05-07T18:46:50.585Z,19.69
2018-05-07T18:49:19.697Z,19.52
2018-05-07T18:51:49.066Z,19.42
2018-05-07T18:54:17.351Z,19.42
2018-05-07T18:56:48.966Z,19.17
2018-05-07T18:59:18.775Z,19.31
2018-05-07T19:01:48.143Z,19.09
2018-05-07T19:04:17.911Z,19.27
2018-05-07T19:06:46.195Z,18.96
2018-05-07T19:09:15.216Z,18.74
2018-05-07T19:11:44.179Z,18.79
2018-05-07T19:14:12.633Z,18.89
2018-05-07T19:16:42.406Z,18.77
2018-05-07T19:19:11.086Z,18.60
2018-05-07T19:21:39.866Z,18.43
2018-05-07T19:24:08.545Z,18.37
2018-05-07T19:26:38.046Z,18.24
2018-05-07T19:29:07.319Z,18.45
2018-05-07T19:31:36.465Z,18.11
2018-05-07T19:34:05.587Z,17.92
2018-05-07T19:36:35.464Z,18.09
2018-05-07T19:39:04.512Z,17.93
2018-05-07T19:41:34.806Z,17.89
2018-05-07T19:44:03.832Z,17.86
2018-05-07T19:46:33.520Z,17.63
2018-05-07T19:49:03.418Z,17.74
2018-05-07T19:51:33.003Z,17.48
2018-05-07T19:54:02.768Z,17.41
2018-05-07T19:56:31.363Z,17.19
2018-05-07T19:59:01.095Z,17.35
2018-05-07T20:01:30.755Z,17.14
2018-05-07T20:03:59.968Z,17.18
2018-05-07T20:06:29.245Z,17.08
2018-05-07T20:08:58.319Z,17.14
2018-05-07T20:11:28.962Z,16.87
2018-05-07T20:13:57.975Z,16.84
2018-05-07T20:16:27.600Z,16.81
2018-05-07T20:18:55.893Z,16.83
2018-05-07T20:21:24.199Z,16.61
2018-05-07T20:23:54.190Z,16.52
2018-05-07T20:26:22.971Z,16.37
2018-05-07T20:28:51.938Z,16.36
2018-05-07T20:31:20.178Z,16.38
2018-05-07T20:33:49.816Z,16.27
2018-05-07T20:36:18.116Z,16.40
2018-05-07T20:38:47.222Z,16.38
2018-05-07T20:41:15.684Z,16.42
2018-05-07T20:43:44.064Z,16.05
2018-05-07T20:46:12.950Z,16.15
2018-05-07T20:48:41.360Z,16.16
2018-05-07T20:51:10.088Z,16.24
2018-05-07T20:53:39.123Z,16.28
2018-05-07T20:56:07.610Z,16.01
2018-05-07T20:58:36.491Z,16.17
2018-05-07T21:01:05.793Z,16.06
2018-05-07T21:03:35.183Z,16.15
2018-05-07T21:06:04.010Z,16.04
2018-05-07T21:08:32.633Z,16.08
2018-05-07T21:11:02.109Z,15.86
2018-05-07T21:13:31.312Z,15.91
2018-05-07T21:16:00.148Z,15.81
2018-05-07T21:18:29.099Z,15.88
2018-05-07T21:20:57.359Z,15.72
2018-05-07T21:23:25.654Z,15.75
2018-05-07T21:25:54.733Z,15.70
2018-05-07T21:28:23.010Z,15.43
2018-05-07T21:30:52.548Z,15.50
2018-05-07T21:33:21.611Z,15.38
2018-05-07T21:35:49.911Z,15.39
2018-05-07T21:38:18.184Z,15.41
2018-05-07T21:40:46.497Z,15.28
2018-05-07T21:43:14.777Z,15.14
2018-05-07T21:45:44.245Z,15.05
2018-05-07T21:48:13.320Z,15.18
2018-05-07T21:50:41.710Z,15.20
2018-05-07T21:53:10.294Z,15.21
2018-05-07T21:55:39.214Z,15.20
2018-05-07T21:58:08.280Z,15.22
2018-05-07T22:00:36.568Z,15.16
2018-05-07T22:03:04.874Z,15.06
2018-05-07T22:05:34.025Z,15.01
2018-05-07T22:08:03.101Z,15.02
2018-05-07T22:10:31.584Z,15.05
2018-05-07T22:12:59.974Z,14.90
2018-05-07T22:15:28.327Z,14.73
2018-05-07T22:17:56.567Z,14.69
2018-05-07T22:20:25.127Z,14.65
2018-05-07T22:22:53.419Z,14.88
2018-05-07T22:25:22.174Z,14.82
2018-05-07T22:27:51.072Z,14.79
2018-05-07T22:30:19.579Z,14.82
2018-05-07T22:32:48.487Z,14.63
2018-05-07T22:35:17.187Z,14.71
2018-05-07T22:37:46.247Z,14.66
2018-05-07T22:40:14.541Z,14.75
2018-05-07T22:42:42.872Z,14.70
2018-05-07T22:45:11.487Z,14.71
2018-05-07T22:47:39.857Z,14.78
2018-05-07T22:50:08.994Z,14.79
2018-05-07T22:52:39.270Z,14.74
2018-05-07T22:55:22.452Z,14.82
2018-05-07T22:57:53.199Z,14.69
2018-05-07T23:00:23.226Z,14.75
2018-05-07T23:02:52.046Z,14.80
2018-05-07T23:05:21.280Z,14.77
2018-05-07T23:07:49.577Z,14.73
2018-05-07T23:10:19.506Z,14.68
2018-05-07T23:12:48.582Z,14.66
2018-05-07T23:15:18.447Z,14.57
2018-05-07T23:17:46.727Z,14.46
2018-05-07T23:20:14.986Z,14.48
2018-05-07T23:22:44.054Z,14.55
2018-05-07T23:25:13.121Z,14.38
2018-05-07T23:27:41.537Z,14.31
2018-05-07T23:30:11.330Z,14.36
2018-05-07T23:32:42.553Z,14.40
2018-05-07T23:35:10.857Z,14.30
2018-05-07T23:37:39.672Z,14.27
2018-05-07T23:40:08.799Z,14.24
2018-05-07T23:42:37.178Z,14.21
2018-05-07T23:45:05.553Z,14.16
2018-05-07T23:47:33.859Z,14.15
2018-05-07T23:50:02.276Z,14.22
2018-05-07T23:52:32.082Z,14.09
2018-05-07T23:55:00.491Z,14.12
2018-05-07T23:57:28.833Z,14.12
2018-05-07T23:59:57.336Z,14.17
